PWSweather.com
Personal Weather Stations
Station Observations
KOHAVON11
Long Road Station, Avon, OH 44011

Long Road StationAvon, OH 44011

Lat: 41.437, Lon: -82.0477

Elevation: 686

Station Type: Davis Vantage Pro2

http://www.avon-weather.com

High Low Average
Temperature 42.1°F5.6°C 16.1°F-8.8°C 28.6°F-1.9°C
Dew Point 27.9°F-2.3°C 7.0°F-13.9°C 16.2°F-8.8°C
Winds 27.0 mph 43.5 kmh Calm Calm 9.0 mph S14.5 kmh S
Wind Gusts 38.0 mph61.2 kmh 5.0 mph8.0 kmh 20.0 mph32.2 kmh
Humidity 68% 47% 60%
Pressure 30.31 in1026.4 mb 29.75 in1007.5 mb -
Precipitation 0.00 in0.0 mm - -
Hour Temp Dew Point Humidity Winds Wind Gusts Pressure Precip Precip Rate Daily Precip Total
12:02 AM 16.7°F-8.5°C 7.6°F-13.6°C 67% 3.0 mph SE4.8 kmh SE 6.0 mph9.7 kmh 30.31 in1026.4 mb 0.00 in0.0 mm 0.00 in0.0 mm 0.00 in0.0 mm
12:07 AM 16.6°F-8.6°C 7.5°F-13.6°C 67% 5.0 mph SE8.0 kmh SE 9.0 mph14.5 kmh 30.30 in1026.1 mb 0.00 in0.0 mm 0.00 in0.0 mm 0.00 in0.0 mm
12:12 AM 16.7°F-8.5°C 7.6°F-13.6°C 67% 2.0 mph S3.2 kmh S 9.0 mph14.5 kmh 30.30 in1026.1 mb 0.00 in0.0 mm 0.00 in0.0 mm 0.00 in0.0 mm
12:17 AM 16.7°F-8.5°C 7.9°F-13.4°C 68% 1.0 mph S1.6 kmh S 9.0 mph14.5 kmh 30.31 in1026.4 mb 0.00 in0.0 mm 0.00 in0.0 mm 0.00 in0.0 mm
12:22 AM 16.7°F-8.5°C 7.6°F-13.6°C 67% 2.0 mph S3.2 kmh S 9.0 mph14.5 kmh 30.31 in1026.4 mb 0.00 in0.0 mm 0.00 in0.0 mm 0.00 in0.0 mm
12:27 AM 16.7°F-8.5°C 7.6°F-13.6°C 67% Calm Calm 8.0 mph12.9 kmh 30.31 in1026.4 mb 0.00 in0.0 mm 0.00 in0.0 mm 0.00 in0.0 mm
12:32 AM 16.7°F-8.5°C 7.6°F-13.6°C 67% 2.0 mph S3.2 kmh S 8.0 mph12.9 kmh 30.31 in1026.4 mb 0.00 in0.0 mm 0.00 in0.0 mm 0.00 in0.0 mm
12:37 AM 16.7°F-8.5°C 7.6°F-13.6°C 67% 4.0 mph S6.4 kmh S 8.0 mph12.9 kmh 30.31 in1026.4 mb 0.00 in0.0 mm 0.00 in0.0 mm 0.00 in0.0 mm
12:42 AM 16.7°F-8.5°C 7.6°F-13.6°C 67% 2.0 mph S3.2 kmh S 8.0 mph12.9 kmh 30.31 in1026.4 mb 0.00 in0.0 mm 0.00 in0.0 mm 0.00 in0.0 mm
12:47 AM 16.7°F-8.5°C 7.6°F-13.6°C 67% 3.0 mph S4.8 kmh S 8.0 mph12.9 kmh 30.30 in1026.1 mb 0.00 in0.0 mm 0.00 in0.0 mm 0.00 in0.0 mm
12:52 AM 16.6°F-8.6°C 7.1°F-13.8°C 66% Calm Calm 8.0 mph12.9 kmh 30.30 in1026.1 mb 0.00 in0.0 mm 0.00 in0.0 mm 0.00 in0.0 mm
12:57 AM 16.5°F-8.6°C 7.4°F-13.7°C 67% 2.0 mph SSW3.2 kmh SSW 5.0 mph8.0 kmh 30.31 in1026.4 mb 0.00 in0.0 mm 0.00 in0.0 mm 0.00 in0.0 mm
01:02 AM 16.5°F-8.6°C 7.4°F-13.7°C 67% 3.0 mph SSW4.8 kmh SSW 5.0 mph8.0 kmh 30.31 in1026.4 mb 0.00 in0.0 mm 0.00 in0.0 mm 0.00 in0.0 mm
01:07 AM 16.4°F-8.7°C 7.3°F-13.7°C 67% 1.0 mph SE1.6 kmh SE 7.0 mph11.3 kmh 30.30 in1026.1 mb 0.00 in0.0 mm 0.00 in0.0 mm 0.00 in0.0 mm
01:12 AM 16.4°F-8.7°C 7.3°F-13.7°C 67% 3.0 mph SE4.8 kmh SE 7.0 mph11.3 kmh 30.30 in1026.1 mb 0.00 in0.0 mm 0.00 in0.0 mm 0.00 in0.0 mm
01:17 AM 16.2°F-8.8°C 7.1°F-13.8°C 67% 1.0 mph S1.6 kmh S 7.0 mph11.3 kmh 30.30 in1026.1 mb 0.00 in0.0 mm 0.00 in0.0 mm 0.00 in0.0 mm
01:22 AM 16.2°F-8.8°C 7.1°F-13.8°C 67% 2.0 mph S3.2 kmh S 7.0 mph11.3 kmh 30.30 in1026.1 mb 0.00 in0.0 mm 0.00 in0.0 mm 0.00 in0.0 mm
01:27 AM 16.1°F-8.8°C 7.0°F-13.9°C 67% 1.0 mph S1.6 kmh S 6.0 mph9.7 kmh 30.30 in1026.1 mb 0.00 in0.0 mm 0.00 in0.0 mm 0.00 in0.0 mm
01:32 AM 16.1°F-8.8°C 7.0°F-13.9°C 67% 2.0 mph SSW3.2 kmh SSW 6.0 mph9.7 kmh 30.28 in1025.4 mb 0.00 in0.0 mm 0.00 in0.0 mm 0.00 in0.0 mm
01:37 AM 16.1°F-8.8°C 7.0°F-13.9°C 67% 2.0 mph S3.2 kmh S 7.0 mph11.3 kmh 30.29 in1025.7 mb 0.00 in0.0 mm 0.00 in0.0 mm 0.00 in0.0 mm
01:42 AM 16.1°F-8.8°C 7.3°F-13.7°C 68% 2.0 mph SE3.2 kmh SE 8.0 mph12.9 kmh 30.29 in1025.7 mb 0.00 in0.0 mm 0.00 in0.0 mm 0.00 in0.0 mm
01:47 AM 16.2°F-8.8°C 7.4°F-13.7°C 68% 8.0 mph SSE12.9 kmh SSE 10.0 mph16.1 kmh 30.29 in1025.7 mb 0.00 in0.0 mm 0.00 in0.0 mm 0.00 in0.0 mm
01:52 AM 16.2°F-8.8°C 7.1°F-13.8°C 67% 4.0 mph SE6.4 kmh SE 10.0 mph16.1 kmh 30.28 in1025.4 mb 0.00 in0.0 mm 0.00 in0.0 mm 0.00 in0.0 mm
01:57 AM 16.2°F-8.8°C 7.1°F-13.8°C 67% 3.0 mph SSW4.8 kmh SSW 10.0 mph16.1 kmh 30.27 in1025.1 mb 0.00 in0.0 mm 0.00 in0.0 mm 0.00 in0.0 mm
02:02 AM 16.3°F-8.7°C 7.2°F-13.8°C 67% 2.0 mph S3.2 kmh S 10.0 mph16.1 kmh 30.28 in1025.4 mb 0.00 in0.0 mm 0.00 in0.0 mm 0.00 in0.0 mm
02:07 AM 16.4°F-8.7°C 7.6°F-13.6°C 68% 6.0 mph S9.7 kmh S 9.0 mph14.5 kmh 30.28 in1025.4 mb 0.00 in0.0 mm 0.00 in0.0 mm 0.00 in0.0 mm
02:12 AM 16.5°F-8.6°C 7.4°F-13.7°C 67% 2.0 mph SSW3.2 kmh SSW 9.0 mph14.5 kmh 30.28 in1025.4 mb 0.00 in0.0 mm 0.00 in0.0 mm 0.00 in0.0 mm
02:17 AM 16.5°F-8.6°C 7.4°F-13.7°C 67% 3.0 mph S4.8 kmh S 9.0 mph14.5 kmh 30.28 in1025.4 mb 0.00 in0.0 mm 0.00 in0.0 mm 0.00 in0.0 mm
02:22 AM 16.5°F-8.6°C 7.7°F-13.5°C 68% 3.0 mph SSW4.8 kmh SSW 10.0 mph16.1 kmh 30.28 in1025.4 mb 0.00 in0.0 mm 0.00 in0.0 mm 0.00 in0.0 mm
02:27 AM 16.5°F-8.6°C 7.7°F-13.5°C 68% 3.0 mph SE4.8 kmh SE 10.0 mph16.1 kmh 30.28 in1025.4 mb 0.00 in0.0 mm 0.00 in0.0 mm 0.00 in0.0 mm
02:32 AM 16.6°F-8.6°C 7.8°F-13.4°C 68% 3.0 mph S4.8 kmh S 10.0 mph16.1 kmh 30.28 in1025.4 mb 0.00 in0.0 mm 0.00 in0.0 mm 0.00 in0.0 mm
02:37 AM 16.6°F-8.6°C 7.8°F-13.4°C 68% 1.0 mph S1.6 kmh S 10.0 mph16.1 kmh 30.28 in1025.4 mb 0.00 in0.0 mm 0.00 in0.0 mm 0.00 in0.0 mm
02:42 AM 16.7°F-8.5°C 7.9°F-13.4°C 68% 5.0 mph S8.0 kmh S 8.0 mph12.9 kmh 30.28 in1025.4 mb 0.00 in0.0 mm 0.00 in0.0 mm 0.00 in0.0 mm
02:47 AM 16.7°F-8.5°C 7.9°F-13.4°C 68% 5.0 mph SW8.0 kmh SW 8.0 mph12.9 kmh 30.28 in1025.4 mb 0.00 in0.0 mm 0.00 in0.0 mm 0.00 in0.0 mm
02:52 AM 16.9°F-8.4°C 8.1°F-13.3°C 68% 5.0 mph S8.0 kmh S 7.0 mph11.3 kmh 30.28 in1025.4 mb 0.00 in0.0 mm 0.00 in0.0 mm 0.00 in0.0 mm
02:57 AM 17.0°F-8.3°C 8.2°F-13.2°C 68% 3.0 mph SSE4.8 kmh SSE 7.0 mph11.3 kmh 30.27 in1025.1 mb 0.00 in0.0 mm 0.00 in0.0 mm 0.00 in0.0 mm
03:02 AM 17.2°F-8.2°C 8.4°F-13.1°C 68% 5.0 mph S8.0 kmh S 10.0 mph16.1 kmh 30.27 in1025.1 mb 0.00 in0.0 mm 0.00 in0.0 mm 0.00 in0.0 mm
03:07 AM 17.4°F-8.1°C 8.6°F-13.0°C 68% 7.0 mph SE11.3 kmh SE 11.0 mph17.7 kmh 30.27 in1025.1 mb 0.00 in0.0 mm 0.00 in0.0 mm 0.00 in0.0 mm
03:12 AM 17.6°F-8.0°C 8.8°F-12.9°C 68% 3.0 mph SSE4.8 kmh SSE 11.0 mph17.7 kmh 30.27 in1025.1 mb 0.00 in0.0 mm 0.00 in0.0 mm 0.00 in0.0 mm
03:17 AM 17.8°F-7.9°C 9.0°F-12.8°C 68% 6.0 mph S9.7 kmh S 11.0 mph17.7 kmh 30.26 in1024.7 mb 0.00 in0.0 mm 0.00 in0.0 mm 0.00 in0.0 mm
03:22 AM 17.9°F-7.8°C 9.1°F-12.7°C 68% 2.0 mph S3.2 kmh S 11.0 mph17.7 kmh 30.26 in1024.7 mb 0.00 in0.0 mm 0.00 in0.0 mm 0.00 in0.0 mm
03:27 AM 18.1°F-7.7°C 9.3°F-12.6°C 68% 4.0 mph S6.4 kmh S 11.0 mph17.7 kmh 30.26 in1024.7 mb 0.00 in0.0 mm 0.00 in0.0 mm 0.00 in0.0 mm
03:32 AM 18.3°F-7.6°C 9.4°F-12.6°C 68% 4.0 mph SSE6.4 kmh SSE 11.0 mph17.7 kmh 30.27 in1025.1 mb 0.00 in0.0 mm 0.00 in0.0 mm 0.00 in0.0 mm
03:37 AM 18.5°F-7.5°C 9.6°F-12.4°C 68% 2.0 mph S3.2 kmh S 11.0 mph17.7 kmh 30.27 in1025.1 mb 0.00 in0.0 mm 0.00 in0.0 mm 0.00 in0.0 mm
03:42 AM 18.7°F-7.4°C 9.8°F-12.3°C 68% 8.0 mph SE12.9 kmh SE 13.0 mph20.9 kmh 30.27 in1025.1 mb 0.00 in0.0 mm 0.00 in0.0 mm 0.00 in0.0 mm
03:47 AM 18.8°F-7.3°C 9.6°F-12.4°C 67% 6.0 mph S9.7 kmh S 15.0 mph24.1 kmh 30.27 in1025.1 mb 0.00 in0.0 mm 0.00 in0.0 mm 0.00 in0.0 mm
03:52 AM 19.0°F-7.2°C 9.8°F-12.3°C 67% 6.0 mph SE9.7 kmh SE 15.0 mph24.1 kmh 30.27 in1025.1 mb 0.00 in0.0 mm 0.00 in0.0 mm 0.00 in0.0 mm
03:57 AM 19.1°F-7.2°C 9.9°F-12.3°C 67% 9.0 mph S14.5 kmh S 15.0 mph24.1 kmh 30.27 in1025.1 mb 0.00 in0.0 mm 0.00 in0.0 mm 0.00 in0.0 mm
04:02 AM 19.2°F-7.1°C 10.0°F-12.2°C 67% 3.0 mph S4.8 kmh S 15.0 mph24.1 kmh 30.26 in1024.7 mb 0.00 in0.0 mm 0.00 in0.0 mm 0.00 in0.0 mm
04:07 AM 19.3°F-7.1°C 10.1°F-12.2°C 67% 4.0 mph S6.4 kmh S 11.0 mph17.7 kmh 30.26 in1024.7 mb 0.00 in0.0 mm 0.00 in0.0 mm 0.00 in0.0 mm
04:12 AM 19.4°F-7.0°C 10.2°F-12.1°C 67% 2.0 mph SW3.2 kmh SW 11.0 mph17.7 kmh 30.25 in1024.4 mb 0.00 in0.0 mm 0.00 in0.0 mm 0.00 in0.0 mm
04:17 AM 19.5°F-6.9°C 10.3°F-12.1°C 67% 6.0 mph S9.7 kmh S 11.0 mph17.7 kmh 30.25 in1024.4 mb 0.00 in0.0 mm 0.00 in0.0 mm 0.00 in0.0 mm
04:22 AM 19.6°F-6.9°C 10.3°F-12.1°C 67% 4.0 mph S6.4 kmh S 11.0 mph17.7 kmh 30.25 in1024.4 mb 0.00 in0.0 mm 0.00 in0.0 mm 0.00 in0.0 mm
04:27 AM 19.7°F-6.8°C 10.4°F-12.0°C 67% 4.0 mph SSE6.4 kmh SSE 11.0 mph17.7 kmh 30.24 in1024.0 mb 0.00 in0.0 mm 0.00 in0.0 mm 0.00 in0.0 mm
04:32 AM 19.9°F-6.7°C 10.6°F-11.9°C 67% 4.0 mph SSE6.4 kmh SSE 11.0 mph17.7 kmh 30.24 in1024.0 mb 0.00 in0.0 mm 0.00 in0.0 mm 0.00 in0.0 mm
04:37 AM 20.0°F-6.7°C 11.1°F-11.6°C 68% 5.0 mph S8.0 kmh S 7.0 mph11.3 kmh 30.23 in1023.7 mb 0.00 in0.0 mm 0.00 in0.0 mm 0.00 in0.0 mm
04:42 AM 20.1°F-6.6°C 11.2°F-11.6°C 68% 4.0 mph S6.4 kmh S 9.0 mph14.5 kmh 30.23 in1023.7 mb 0.00 in0.0 mm 0.00 in0.0 mm 0.00 in0.0 mm
04:47 AM 20.3°F-6.5°C 11.4°F-11.4°C 68% 1.0 mph S1.6 kmh S 10.0 mph16.1 kmh 30.23 in1023.7 mb 0.00 in0.0 mm 0.00 in0.0 mm 0.00 in0.0 mm
04:52 AM 20.5°F-6.4°C 11.5°F-11.4°C 68% 3.0 mph S4.8 kmh S 10.0 mph16.1 kmh 30.23 in1023.7 mb 0.00 in0.0 mm 0.00 in0.0 mm 0.00 in0.0 mm
04:57 AM 20.7°F-6.3°C 11.4°F-11.4°C 67% 4.0 mph SW6.4 kmh SW 10.0 mph16.1 kmh 30.22 in1023.4 mb 0.00 in0.0 mm 0.00 in0.0 mm 0.00 in0.0 mm
05:02 AM 20.8°F-6.2°C 11.5°F-11.4°C 67% 12.0 mph S19.3 kmh S 12.0 mph19.3 kmh 30.22 in1023.4 mb 0.00 in0.0 mm 0.00 in0.0 mm 0.00 in0.0 mm
05:07 AM 21.1°F-6.1°C 11.8°F-11.2°C 67% 9.0 mph SSW14.5 kmh SSW 12.0 mph19.3 kmh 30.21 in1023.0 mb 0.00 in0.0 mm 0.00 in0.0 mm 0.00 in0.0 mm
05:12 AM 21.3°F-5.9°C 12.0°F-11.1°C 67% 8.0 mph SE12.9 kmh SE 12.0 mph19.3 kmh 30.21 in1023.0 mb 0.00 in0.0 mm 0.00 in0.0 mm 0.00 in0.0 mm
05:17 AM 21.4°F-5.9°C 12.1°F-11.1°C 67% 4.0 mph S6.4 kmh S 14.0 mph22.5 kmh 30.20 in1022.7 mb 0.00 in0.0 mm 0.00 in0.0 mm 0.00 in0.0 mm
05:22 AM 21.6°F-5.8°C 11.9°F-11.2°C 66% 6.0 mph S9.7 kmh S 14.0 mph22.5 kmh 30.19 in1022.4 mb 0.00 in0.0 mm 0.00 in0.0 mm 0.00 in0.0 mm
05:27 AM 21.7°F-5.7°C 12.0°F-11.1°C 66% 7.0 mph S11.3 kmh S 14.0 mph22.5 kmh 30.19 in1022.4 mb 0.00 in0.0 mm 0.00 in0.0 mm 0.00 in0.0 mm
05:32 AM 21.8°F-5.7°C 12.1°F-11.1°C 66% 8.0 mph SE12.9 kmh SE 17.0 mph27.4 kmh 30.18 in1022.0 mb 0.00 in0.0 mm 0.00 in0.0 mm 0.00 in0.0 mm
05:37 AM 22.0°F-5.6°C 12.3°F-10.9°C 66% 13.0 mph S20.9 kmh S 17.0 mph27.4 kmh 30.18 in1022.0 mb 0.00 in0.0 mm 0.00 in0.0 mm 0.00 in0.0 mm
05:42 AM 22.1°F-5.5°C 12.4°F-10.9°C 66% 4.0 mph SSE6.4 kmh SSE 17.0 mph27.4 kmh 30.17 in1021.7 mb 0.00 in0.0 mm 0.00 in0.0 mm 0.00 in0.0 mm
05:47 AM 22.3°F-5.4°C 12.6°F-10.8°C 66% 6.0 mph SW9.7 kmh SW 17.0 mph27.4 kmh 30.16 in1021.3 mb 0.00 in0.0 mm 0.00 in0.0 mm 0.00 in0.0 mm
05:52 AM 22.4°F-5.3°C 12.7°F-10.7°C 66% 5.0 mph S8.0 kmh S 17.0 mph27.4 kmh 30.16 in1021.3 mb 0.00 in0.0 mm 0.00 in0.0 mm 0.00 in0.0 mm
05:57 AM 22.5°F-5.3°C 12.4°F-10.9°C 65% 11.0 mph S17.7 kmh S 17.0 mph27.4 kmh 30.17 in1021.7 mb 0.00 in0.0 mm 0.00 in0.0 mm 0.00 in0.0 mm
06:02 AM 22.7°F-5.2°C 12.6°F-10.8°C 65% 6.0 mph S9.7 kmh S 19.0 mph30.6 kmh 30.17 in1021.7 mb 0.00 in0.0 mm 0.00 in0.0 mm 0.00 in0.0 mm
06:07 AM 22.8°F-5.1°C 12.7°F-10.7°C 65% 7.0 mph SE11.3 kmh SE 20.0 mph32.2 kmh 30.16 in1021.3 mb 0.00 in0.0 mm 0.00 in0.0 mm 0.00 in0.0 mm
06:12 AM 23.0°F-5.0°C 12.9°F-10.6°C 65% 13.0 mph S20.9 kmh S 20.0 mph32.2 kmh 30.16 in1021.3 mb 0.00 in0.0 mm 0.00 in0.0 mm 0.00 in0.0 mm
06:17 AM 23.1°F-4.9°C 13.0°F-10.6°C 65% 11.0 mph S17.7 kmh S 22.0 mph35.4 kmh 30.16 in1021.3 mb 0.00 in0.0 mm 0.00 in0.0 mm 0.00 in0.0 mm
06:22 AM 23.1°F-4.9°C 12.6°F-10.8°C 64% 6.0 mph SW9.7 kmh SW 22.0 mph35.4 kmh 30.15 in1021.0 mb 0.00 in0.0 mm 0.00 in0.0 mm 0.00 in0.0 mm
06:27 AM 23.2°F-4.9°C 12.7°F-10.7°C 64% 12.0 mph S19.3 kmh S 22.0 mph35.4 kmh 30.15 in1021.0 mb 0.00 in0.0 mm 0.00 in0.0 mm 0.00 in0.0 mm
06:32 AM 23.2°F-4.9°C 12.7°F-10.7°C 64% 10.0 mph S16.1 kmh S 23.0 mph37.0 kmh 30.15 in1021.0 mb 0.00 in0.0 mm 0.00 in0.0 mm 0.00 in0.0 mm
06:37 AM 23.3°F-4.8°C 12.8°F-10.7°C 64% 8.0 mph SSE12.9 kmh SSE 23.0 mph37.0 kmh 30.14 in1020.7 mb 0.00 in0.0 mm 0.00 in0.0 mm 0.00 in0.0 mm
06:42 AM 23.3°F-4.8°C 12.8°F-10.7°C 64% 11.0 mph S17.7 kmh S 23.0 mph37.0 kmh 30.14 in1020.7 mb 0.00 in0.0 mm 0.00 in0.0 mm 0.00 in0.0 mm
06:47 AM 23.3°F-4.8°C 12.8°F-10.7°C 64% 7.0 mph SSW11.3 kmh SSW 23.0 mph37.0 kmh 30.14 in1020.7 mb 0.00 in0.0 mm 0.00 in0.0 mm 0.00 in0.0 mm
06:52 AM 23.3°F-4.8°C 12.8°F-10.7°C 64% 9.0 mph S14.5 kmh S 22.0 mph35.4 kmh 30.14 in1020.7 mb 0.00 in0.0 mm 0.00 in0.0 mm 0.00 in0.0 mm
06:57 AM 23.4°F-4.8°C 12.9°F-10.6°C 64% 3.0 mph S4.8 kmh S 22.0 mph35.4 kmh 30.14 in1020.7 mb 0.00 in0.0 mm 0.00 in0.0 mm 0.00 in0.0 mm
07:02 AM 23.4°F-4.8°C 12.9°F-10.6°C 64% 5.0 mph S8.0 kmh S 23.0 mph37.0 kmh 30.13 in1020.3 mb 0.00 in0.0 mm 0.00 in0.0 mm 0.00 in0.0 mm
07:07 AM 23.4°F-4.8°C 12.9°F-10.6°C 64% 9.0 mph SSE14.5 kmh SSE 23.0 mph37.0 kmh 30.13 in1020.3 mb 0.00 in0.0 mm 0.00 in0.0 mm 0.00 in0.0 mm
07:12 AM 23.4°F-4.8°C 12.9°F-10.6°C 64% 9.0 mph WSW14.5 kmh WSW 23.0 mph37.0 kmh 30.12 in1020.0 mb 0.00 in0.0 mm 0.00 in0.0 mm 0.00 in0.0 mm
07:17 AM 23.4°F-4.8°C 12.9°F-10.6°C 64% 12.0 mph S19.3 kmh S 23.0 mph37.0 kmh 30.12 in1020.0 mb 0.00 in0.0 mm 0.00 in0.0 mm 0.00 in0.0 mm
07:22 AM 23.4°F-4.8°C 12.9°F-10.6°C 64% 9.0 mph S14.5 kmh S 27.0 mph43.5 kmh 30.11 in1019.6 mb 0.00 in0.0 mm 0.00 in0.0 mm 0.00 in0.0 mm
07:27 AM 23.5°F-4.7°C 13.0°F-10.6°C 64% 7.0 mph SSE11.3 kmh SSE 27.0 mph43.5 kmh 30.11 in1019.6 mb 0.00 in0.0 mm 0.00 in0.0 mm 0.00 in0.0 mm
07:32 AM 23.5°F-4.7°C 13.0°F-10.6°C 64% 7.0 mph ESE11.3 kmh ESE 27.0 mph43.5 kmh 30.10 in1019.3 mb 0.00 in0.0 mm 0.00 in0.0 mm 0.00 in0.0 mm
07:37 AM 23.6°F-4.7°C 13.1°F-10.5°C 64% 4.0 mph S6.4 kmh S 27.0 mph43.5 kmh 30.09 in1019.0 mb 0.00 in0.0 mm 0.00 in0.0 mm 0.00 in0.0 mm
07:42 AM 23.6°F-4.7°C 13.1°F-10.5°C 64% 9.0 mph SSW14.5 kmh SSW 22.0 mph35.4 kmh 30.09 in1019.0 mb 0.00 in0.0 mm 0.00 in0.0 mm 0.00 in0.0 mm
07:47 AM 23.6°F-4.7°C 13.1°F-10.5°C 64% 10.0 mph SE16.1 kmh SE 22.0 mph35.4 kmh 30.09 in1019.0 mb 0.00 in0.0 mm 0.00 in0.0 mm 0.00 in0.0 mm
07:52 AM 23.7°F-4.6°C 13.2°F-10.4°C 64% 11.0 mph SSW17.7 kmh SSW 22.0 mph35.4 kmh 30.09 in1019.0 mb 0.00 in0.0 mm 0.00 in0.0 mm 0.00 in0.0 mm
07:57 AM 23.7°F-4.6°C 13.2°F-10.4°C 64% 20.0 mph S32.2 kmh S 23.0 mph37.0 kmh 30.08 in1018.6 mb 0.00 in0.0 mm 0.00 in0.0 mm 0.00 in0.0 mm
08:02 AM 23.8°F-4.6°C 13.3°F-10.4°C 64% 12.0 mph SSW19.3 kmh SSW 23.0 mph37.0 kmh 30.08 in1018.6 mb 0.00 in0.0 mm 0.00 in0.0 mm 0.00 in0.0 mm
08:07 AM 23.9°F-4.5°C 13.4°F-10.3°C 64% 19.0 mph SSE30.6 kmh SSE 23.0 mph37.0 kmh 30.07 in1018.3 mb 0.00 in0.0 mm 0.00 in0.0 mm 0.00 in0.0 mm
08:12 AM 24.0°F-4.4°C 13.5°F-10.3°C 64% 17.0 mph S27.4 kmh S 23.0 mph37.0 kmh 30.07 in1018.3 mb 0.00 in0.0 mm 0.00 in0.0 mm 0.00 in0.0 mm
08:17 AM 24.2°F-4.3°C 13.7°F-10.2°C 64% 13.0 mph SE20.9 kmh SE 31.0 mph49.9 kmh 30.06 in1017.9 mb 0.00 in0.0 mm 0.00 in0.0 mm 0.00 in0.0 mm
08:22 AM 24.3°F-4.3°C 13.8°F-10.1°C 64% 18.0 mph S29.0 kmh S 31.0 mph49.9 kmh 30.06 in1017.9 mb 0.00 in0.0 mm 0.00 in0.0 mm 0.00 in0.0 mm
08:27 AM 24.4°F-4.2°C 13.8°F-10.1°C 64% 17.0 mph SSE27.4 kmh SSE 31.0 mph49.9 kmh 30.05 in1017.6 mb 0.00 in0.0 mm 0.00 in0.0 mm 0.00 in0.0 mm
08:32 AM 24.5°F-4.2°C 13.6°F-10.2°C 63% 11.0 mph SSW17.7 kmh SSW 32.0 mph51.5 kmh 30.05 in1017.6 mb 0.00 in0.0 mm 0.00 in0.0 mm 0.00 in0.0 mm
08:37 AM 24.6°F-4.1°C 13.7°F-10.2°C 63% 19.0 mph S30.6 kmh S 32.0 mph51.5 kmh 30.04 in1017.3 mb 0.00 in0.0 mm 0.00 in0.0 mm 0.00 in0.0 mm
08:42 AM 24.7°F-4.1°C 13.8°F-10.1°C 63% 16.0 mph S25.7 kmh S 32.0 mph51.5 kmh 30.04 in1017.3 mb 0.00 in0.0 mm 0.00 in0.0 mm 0.00 in0.0 mm
08:47 AM 24.8°F-4.0°C 13.9°F-10.1°C 63% 18.0 mph S29.0 kmh S 32.0 mph51.5 kmh 30.04 in1017.3 mb 0.00 in0.0 mm 0.00 in0.0 mm 0.00 in0.0 mm
08:52 AM 25.0°F-3.9°C 14.0°F-10.0°C 63% 18.0 mph S29.0 kmh S 22.0 mph35.4 kmh 30.04 in1017.3 mb 0.00 in0.0 mm 0.00 in0.0 mm 0.00 in0.0 mm
08:57 AM 25.1°F-3.8°C 13.8°F-10.1°C 62% 14.0 mph S22.5 kmh S 24.0 mph38.6 kmh 30.04 in1017.3 mb 0.00 in0.0 mm 0.00 in0.0 mm 0.00 in0.0 mm
09:02 AM 25.2°F-3.8°C 14.2°F-9.9°C 63% 18.0 mph S29.0 kmh S 24.0 mph38.6 kmh 30.03 in1016.9 mb 0.00 in0.0 mm 0.00 in0.0 mm 0.00 in0.0 mm
09:07 AM 25.3°F-3.7°C 14.3°F-9.8°C 63% 15.0 mph SSE24.1 kmh SSE 26.0 mph41.8 kmh 30.02 in1016.6 mb 0.00 in0.0 mm 0.00 in0.0 mm 0.00 in0.0 mm
09:12 AM 25.4°F-3.7°C 14.0°F-10.0°C 62% 15.0 mph S24.1 kmh S 29.0 mph46.7 kmh 30.02 in1016.6 mb 0.00 in0.0 mm 0.00 in0.0 mm 0.00 in0.0 mm
09:17 AM 25.6°F-3.6°C 14.2°F-9.9°C 62% 17.0 mph SSE27.4 kmh SSE 29.0 mph46.7 kmh 30.01 in1016.3 mb 0.00 in0.0 mm 0.00 in0.0 mm 0.00 in0.0 mm
09:22 AM 25.8°F-3.4°C 14.4°F-9.8°C 62% 22.0 mph SSW35.4 kmh SSW 29.0 mph46.7 kmh 30.01 in1016.3 mb 0.00 in0.0 mm 0.00 in0.0 mm 0.00 in0.0 mm
09:27 AM 26.0°F-3.3°C 14.6°F-9.7°C 62% 7.0 mph S11.3 kmh S 29.0 mph46.7 kmh 30.00 in1015.9 mb 0.00 in0.0 mm 0.00 in0.0 mm 0.00 in0.0 mm
09:32 AM 26.1°F-3.3°C 14.7°F-9.6°C 62% 18.0 mph S29.0 kmh S 31.0 mph49.9 kmh 30.00 in1015.9 mb 0.00 in0.0 mm 0.00 in0.0 mm 0.00 in0.0 mm
09:37 AM 26.1°F-3.3°C 14.7°F-9.6°C 62% 17.0 mph SSW27.4 kmh SSW 31.0 mph49.9 kmh 30.00 in1015.9 mb 0.00 in0.0 mm 0.00 in0.0 mm 0.00 in0.0 mm
09:42 AM 26.1°F-3.3°C 14.7°F-9.6°C 62% 17.0 mph S27.4 kmh S 31.0 mph49.9 kmh 29.99 in1015.6 mb 0.00 in0.0 mm 0.00 in0.0 mm 0.00 in0.0 mm
09:47 AM 26.3°F-3.2°C 14.9°F-9.5°C 62% 19.0 mph SSE30.6 kmh SSE 31.0 mph49.9 kmh 29.99 in1015.6 mb 0.00 in0.0 mm 0.00 in0.0 mm 0.00 in0.0 mm
09:52 AM 26.5°F-3.1°C 15.1°F-9.4°C 62% 14.0 mph S22.5 kmh S 29.0 mph46.7 kmh 29.98 in1015.2 mb 0.00 in0.0 mm 0.00 in0.0 mm 0.00 in0.0 mm
09:57 AM 26.8°F-2.9°C 15.0°F-9.4°C 61% 22.0 mph S35.4 kmh S 29.0 mph46.7 kmh 29.98 in1015.2 mb 0.00 in0.0 mm 0.00 in0.0 mm 0.00 in0.0 mm
10:02 AM 27.1°F-2.7°C 15.3°F-9.3°C 61% 4.0 mph SE6.4 kmh SE 27.0 mph43.5 kmh 29.98 in1015.2 mb 0.00 in0.0 mm 0.00 in0.0 mm 0.00 in0.0 mm
10:07 AM 27.3°F-2.6°C 15.1°F-9.4°C 60% 8.0 mph SE12.9 kmh SE 28.0 mph45.1 kmh 29.97 in1014.9 mb 0.00 in0.0 mm 0.00 in0.0 mm 0.00 in0.0 mm
10:12 AM 27.3°F-2.6°C 15.5°F-9.2°C 61% 6.0 mph SE9.7 kmh SE 28.0 mph45.1 kmh 29.96 in1014.6 mb 0.00 in0.0 mm 0.00 in0.0 mm 0.00 in0.0 mm
10:17 AM 27.4°F-2.6°C 15.2°F-9.3°C 60% 17.0 mph S27.4 kmh S 28.0 mph45.1 kmh 29.95 in1014.2 mb 0.00 in0.0 mm 0.00 in0.0 mm 0.00 in0.0 mm
10:22 AM 27.4°F-2.6°C 15.5°F-9.2°C 61% 10.0 mph S16.1 kmh S 31.0 mph49.9 kmh 29.95 in1014.2 mb 0.00 in0.0 mm 0.00 in0.0 mm 0.00 in0.0 mm
10:27 AM 27.6°F-2.4°C 15.3°F-9.3°C 60% 9.0 mph S14.5 kmh S 31.0 mph49.9 kmh 29.94 in1013.9 mb 0.00 in0.0 mm 0.00 in0.0 mm 0.00 in0.0 mm
10:32 AM 28.0°F-2.2°C 15.7°F-9.1°C 60% 14.0 mph SSE22.5 kmh SSE 33.0 mph53.1 kmh 29.93 in1013.5 mb 0.00 in0.0 mm 0.00 in0.0 mm 0.00 in0.0 mm
10:37 AM 28.3°F-2.1°C 16.0°F-8.9°C 60% 4.0 mph SE6.4 kmh SE 33.0 mph53.1 kmh 29.93 in1013.5 mb 0.00 in0.0 mm 0.00 in0.0 mm 0.00 in0.0 mm
10:42 AM 28.5°F-1.9°C 15.8°F-9.0°C 59% 12.0 mph SSW19.3 kmh SSW 33.0 mph53.1 kmh 29.93 in1013.5 mb 0.00 in0.0 mm 0.00 in0.0 mm 0.00 in0.0 mm
10:47 AM 28.7°F-1.8°C 16.0°F-8.9°C 59% 14.0 mph S22.5 kmh S 33.0 mph53.1 kmh 29.92 in1013.2 mb 0.00 in0.0 mm 0.00 in0.0 mm 0.00 in0.0 mm
10:52 AM 29.1°F-1.6°C 15.9°F-8.9°C 58% 16.0 mph S25.7 kmh S 28.0 mph45.1 kmh 29.93 in1013.5 mb 0.00 in0.0 mm 0.00 in0.0 mm 0.00 in0.0 mm
10:57 AM 29.4°F-1.4°C 15.8°F-9.0°C 57% 13.0 mph SSE20.9 kmh SSE 28.0 mph45.1 kmh 29.93 in1013.5 mb 0.00 in0.0 mm 0.00 in0.0 mm 0.00 in0.0 mm
11:02 AM 29.7°F-1.3°C 16.1°F-8.8°C 57% 22.0 mph S35.4 kmh S 30.0 mph48.3 kmh 29.92 in1013.2 mb 0.00 in0.0 mm 0.00 in0.0 mm 0.00 in0.0 mm
11:07 AM 30.0°F-1.1°C 16.4°F-8.7°C 57% 11.0 mph S17.7 kmh S 30.0 mph48.3 kmh 29.92 in1013.2 mb 0.00 in0.0 mm 0.00 in0.0 mm 0.00 in0.0 mm
11:12 AM 30.1°F-1.1°C 16.0°F-8.9°C 56% 8.0 mph S12.9 kmh S 30.0 mph48.3 kmh 29.91 in1012.9 mb 0.00 in0.0 mm 0.00 in0.0 mm 0.00 in0.0 mm
11:17 AM 30.6°F-0.8°C 16.5°F-8.6°C 56% 15.0 mph S24.1 kmh S 30.0 mph48.3 kmh 29.91 in1012.9 mb 0.00 in0.0 mm 0.00 in0.0 mm 0.00 in0.0 mm
11:22 AM 30.7°F-0.7°C 16.6°F-8.6°C 56% 12.0 mph SSE19.3 kmh SSE 26.0 mph41.8 kmh 29.90 in1012.5 mb 0.00 in0.0 mm 0.00 in0.0 mm 0.00 in0.0 mm
11:27 AM 31.4°F-0.3°C 17.3°F-8.2°C 56% 16.0 mph S25.7 kmh S 26.0 mph41.8 kmh 29.90 in1012.5 mb 0.00 in0.0 mm 0.00 in0.0 mm 0.00 in0.0 mm
11:32 AM 32.2°F0.1°C 17.6°F-8.0°C 55% 16.0 mph SSW25.7 kmh SSW 25.0 mph40.2 kmh 29.90 in1012.5 mb 0.00 in0.0 mm 0.00 in0.0 mm 0.00 in0.0 mm
11:37 AM 32.5°F0.3°C 17.4°F-8.1°C 54% 13.0 mph S20.9 kmh S 26.0 mph41.8 kmh 29.89 in1012.2 mb 0.00 in0.0 mm 0.00 in0.0 mm 0.00 in0.0 mm
11:42 AM 32.7°F0.4°C 17.6°F-8.0°C 54% 16.0 mph S25.7 kmh S 33.0 mph53.1 kmh 29.88 in1011.9 mb 0.00 in0.0 mm 0.00 in0.0 mm 0.00 in0.0 mm
11:47 AM 33.0°F0.6°C 17.9°F-7.8°C 54% 10.0 mph SSW16.1 kmh SSW 33.0 mph53.1 kmh 29.88 in1011.9 mb 0.00 in0.0 mm 0.00 in0.0 mm 0.00 in0.0 mm
11:52 AM 33.3°F0.7°C 17.7°F-7.9°C 53% 10.0 mph S16.1 kmh S 33.0 mph53.1 kmh 29.88 in1011.9 mb 0.00 in0.0 mm 0.00 in0.0 mm 0.00 in0.0 mm
11:57 AM 33.6°F0.9°C 17.5°F-8.1°C 52% 27.0 mph S43.5 kmh S 33.0 mph53.1 kmh 29.87 in1011.5 mb 0.00 in0.0 mm 0.00 in0.0 mm 0.00 in0.0 mm
12:02 PM 33.8°F1.0°C 17.7°F-7.9°C 52% 19.0 mph S30.6 kmh S 32.0 mph51.5 kmh 29.87 in1011.5 mb 0.00 in0.0 mm 0.00 in0.0 mm 0.00 in0.0 mm
12:07 PM 33.9°F1.1°C 17.8°F-7.9°C 52% 17.0 mph SSW27.4 kmh SSW 33.0 mph53.1 kmh 29.86 in1011.2 mb 0.00 in0.0 mm 0.00 in0.0 mm 0.00 in0.0 mm
12:12 PM 34.3°F1.3°C 17.7°F-7.9°C 51% 10.0 mph S16.1 kmh S 33.0 mph53.1 kmh 29.86 in1011.2 mb 0.00 in0.0 mm 0.00 in0.0 mm 0.00 in0.0 mm
12:17 PM 34.6°F1.4°C 18.0°F-7.8°C 51% 18.0 mph S29.0 kmh S 33.0 mph53.1 kmh 29.86 in1011.2 mb 0.00 in0.0 mm 0.00 in0.0 mm 0.00 in0.0 mm
12:22 PM 34.7°F1.5°C 18.1°F-7.7°C 51% 20.0 mph SW32.2 kmh SW 33.0 mph53.1 kmh 29.85 in1010.8 mb 0.00 in0.0 mm 0.00 in0.0 mm 0.00 in0.0 mm
12:27 PM 35.0°F1.7°C 17.9°F-7.8°C 50% 14.0 mph SSW22.5 kmh SSW 31.0 mph49.9 kmh 29.84 in1010.5 mb 0.00 in0.0 mm 0.00 in0.0 mm 0.00 in0.0 mm
12:32 PM 35.2°F1.8°C 18.1°F-7.7°C 50% 11.0 mph SSW17.7 kmh SSW 31.0 mph49.9 kmh 29.84 in1010.5 mb 0.00 in0.0 mm 0.00 in0.0 mm 0.00 in0.0 mm
12:37 PM 35.3°F1.8°C 18.1°F-7.7°C 50% 13.0 mph S20.9 kmh S 31.0 mph49.9 kmh 29.84 in1010.5 mb 0.00 in0.0 mm 0.00 in0.0 mm 0.00 in0.0 mm
12:42 PM 35.6°F2.0°C 18.4°F-7.6°C 50% 21.0 mph S33.8 kmh S 31.0 mph49.9 kmh 29.83 in1010.2 mb 0.00 in0.0 mm 0.00 in0.0 mm 0.00 in0.0 mm
12:47 PM 36.0°F2.2°C 18.8°F-7.3°C 50% 14.0 mph S22.5 kmh S 23.0 mph37.0 kmh 29.83 in1010.2 mb 0.00 in0.0 mm 0.00 in0.0 mm 0.00 in0.0 mm
12:52 PM 36.4°F2.4°C 19.2°F-7.1°C 50% 22.0 mph S35.4 kmh S 28.0 mph45.1 kmh 29.83 in1010.2 mb 0.00 in0.0 mm 0.00 in0.0 mm 0.00 in0.0 mm
12:57 PM 36.9°F2.7°C 18.6°F-7.4°C 48% 10.0 mph SSW16.1 kmh SSW 28.0 mph45.1 kmh 29.82 in1009.8 mb 0.00 in0.0 mm 0.00 in0.0 mm 0.00 in0.0 mm
01:02 PM 37.3°F2.9°C 19.5°F-6.9°C 49% 13.0 mph SSW20.9 kmh SSW 28.0 mph45.1 kmh 29.82 in1009.8 mb 0.00 in0.0 mm 0.00 in0.0 mm 0.00 in0.0 mm
01:07 PM 37.4°F3.0°C 19.1°F-7.2°C 48% 17.0 mph SSW27.4 kmh SSW 28.0 mph45.1 kmh 29.81 in1009.5 mb 0.00 in0.0 mm 0.00 in0.0 mm 0.00 in0.0 mm
01:12 PM 37.7°F3.2°C 19.4°F-7.0°C 48% 10.0 mph S16.1 kmh S 27.0 mph43.5 kmh 29.80 in1009.1 mb 0.00 in0.0 mm 0.00 in0.0 mm 0.00 in0.0 mm
01:17 PM 38.0°F3.3°C 19.1°F-7.2°C 47% 10.0 mph S16.1 kmh S 27.0 mph43.5 kmh 29.80 in1009.1 mb 0.00 in0.0 mm 0.00 in0.0 mm 0.00 in0.0 mm
01:22 PM 38.2°F3.4°C 19.3°F-7.1°C 47% 22.0 mph S35.4 kmh S 26.0 mph41.8 kmh 29.80 in1009.1 mb 0.00 in0.0 mm 0.00 in0.0 mm 0.00 in0.0 mm
01:27 PM 38.2°F3.4°C 19.3°F-7.1°C 47% 10.0 mph SW16.1 kmh SW 26.0 mph41.8 kmh 29.79 in1008.8 mb 0.00 in0.0 mm 0.00 in0.0 mm 0.00 in0.0 mm
01:32 PM 38.3°F3.5°C 19.9°F-6.7°C 48% 16.0 mph WSW25.7 kmh WSW 25.0 mph40.2 kmh 29.79 in1008.8 mb 0.00 in0.0 mm 0.00 in0.0 mm 0.00 in0.0 mm
01:37 PM 38.6°F3.7°C 19.7°F-6.8°C 47% 13.0 mph SW20.9 kmh SW 25.0 mph40.2 kmh 29.78 in1008.5 mb 0.00 in0.0 mm 0.00 in0.0 mm 0.00 in0.0 mm
01:42 PM 38.7°F3.7°C 20.3°F-6.5°C 48% 18.0 mph SSE29.0 kmh SSE 25.0 mph40.2 kmh 29.78 in1008.5 mb 0.00 in0.0 mm 0.00 in0.0 mm 0.00 in0.0 mm
01:47 PM 39.1°F3.9°C 20.6°F-6.3°C 48% 16.0 mph SSW25.7 kmh SSW 26.0 mph41.8 kmh 29.78 in1008.5 mb 0.00 in0.0 mm 0.00 in0.0 mm 0.00 in0.0 mm
01:52 PM 39.5°F4.2°C 21.0°F-6.1°C 48% 7.0 mph SSW11.3 kmh SSW 27.0 mph43.5 kmh 29.77 in1008.1 mb 0.00 in0.0 mm 0.00 in0.0 mm 0.00 in0.0 mm
01:57 PM 40.0°F4.4°C 21.5°F-5.8°C 48% 4.0 mph SW6.4 kmh SW 27.0 mph43.5 kmh 29.77 in1008.1 mb 0.00 in0.0 mm 0.00 in0.0 mm 0.00 in0.0 mm
02:02 PM 40.4°F4.7°C 21.8°F-5.7°C 48% 12.0 mph S19.3 kmh S 27.0 mph43.5 kmh 29.78 in1008.5 mb 0.00 in0.0 mm 0.00 in0.0 mm 0.00 in0.0 mm
02:07 PM 40.5°F4.7°C 21.9°F-5.6°C 48% 9.0 mph S14.5 kmh S 27.0 mph43.5 kmh 29.78 in1008.5 mb 0.00 in0.0 mm 0.00 in0.0 mm 0.00 in0.0 mm
02:12 PM 41.1°F5.1°C 22.5°F-5.3°C 48% 12.0 mph SW19.3 kmh SW 21.0 mph33.8 kmh 29.78 in1008.5 mb 0.00 in0.0 mm 0.00 in0.0 mm 0.00 in0.0 mm
02:17 PM 41.6°F5.3°C 22.9°F-5.1°C 48% 12.0 mph SW19.3 kmh SW 21.0 mph33.8 kmh 29.78 in1008.5 mb 0.00 in0.0 mm 0.00 in0.0 mm 0.00 in0.0 mm
02:22 PM 41.9°F5.5°C 23.2°F-4.9°C 48% 7.0 mph SSW11.3 kmh SSW 24.0 mph38.6 kmh 29.78 in1008.5 mb 0.00 in0.0 mm 0.00 in0.0 mm 0.00 in0.0 mm
02:27 PM 42.1°F5.6°C 23.4°F-4.8°C 48% 15.0 mph SW24.1 kmh SW 24.0 mph38.6 kmh 29.79 in1008.8 mb 0.00 in0.0 mm 0.00 in0.0 mm 0.00 in0.0 mm
02:32 PM 41.8°F5.4°C 23.1°F-4.9°C 48% 16.0 mph SSW25.7 kmh SSW 24.0 mph38.6 kmh 29.78 in1008.5 mb 0.00 in0.0 mm 0.00 in0.0 mm 0.00 in0.0 mm
02:37 PM 41.7°F5.4°C 23.5°F-4.7°C 49% 9.0 mph SW14.5 kmh SW 24.0 mph38.6 kmh 29.78 in1008.5 mb 0.00 in0.0 mm 0.00 in0.0 mm 0.00 in0.0 mm
02:42 PM 41.8°F5.4°C 24.1°F-4.4°C 50% 11.0 mph S17.7 kmh S 24.0 mph38.6 kmh 29.78 in1008.5 mb 0.00 in0.0 mm 0.00 in0.0 mm 0.00 in0.0 mm
02:47 PM 41.7°F5.4°C 24.0°F-4.4°C 50% 7.0 mph S11.3 kmh S 24.0 mph38.6 kmh 29.78 in1008.5 mb 0.00 in0.0 mm 0.00 in0.0 mm 0.00 in0.0 mm
02:52 PM 41.7°F5.4°C 24.0°F-4.4°C 50% 10.0 mph SSW16.1 kmh SSW 21.0 mph33.8 kmh 29.78 in1008.5 mb 0.00 in0.0 mm 0.00 in0.0 mm 0.00 in0.0 mm
02:57 PM 41.6°F5.3°C 23.9°F-4.5°C 50% 18.0 mph SW29.0 kmh SW 38.0 mph61.2 kmh 29.77 in1008.1 mb 0.00 in0.0 mm 0.00 in0.0 mm 0.00 in0.0 mm
03:02 PM 41.4°F5.2°C 23.7°F-4.6°C 50% 6.0 mph SW9.7 kmh SW 38.0 mph61.2 kmh 29.78 in1008.5 mb 0.00 in0.0 mm 0.00 in0.0 mm 0.00 in0.0 mm
03:07 PM 41.3°F5.2°C 24.1°F-4.4°C 51% 16.0 mph SW25.7 kmh SW 38.0 mph61.2 kmh 29.77 in1008.1 mb 0.00 in0.0 mm 0.00 in0.0 mm 0.00 in0.0 mm
03:12 PM 41.2°F5.1°C 24.1°F-4.4°C 51% 15.0 mph S24.1 kmh S 38.0 mph61.2 kmh 29.77 in1008.1 mb 0.00 in0.0 mm 0.00 in0.0 mm 0.00 in0.0 mm
03:17 PM 41.3°F5.2°C 24.1°F-4.4°C 51% 12.0 mph SSW19.3 kmh SSW 30.0 mph48.3 kmh 29.76 in1007.8 mb 0.00 in0.0 mm 0.00 in0.0 mm 0.00 in0.0 mm
03:22 PM 41.2°F5.1°C 24.1°F-4.4°C 51% 8.0 mph S12.9 kmh S 30.0 mph48.3 kmh 29.76 in1007.8 mb 0.00 in0.0 mm 0.00 in0.0 mm 0.00 in0.0 mm
03:27 PM 41.3°F5.2°C 25.1°F-3.8°C 53% 15.0 mph WSW24.1 kmh WSW 29.0 mph46.7 kmh 29.76 in1007.8 mb 0.00 in0.0 mm 0.00 in0.0 mm 0.00 in0.0 mm
03:32 PM 41.4°F5.2°C 25.2°F-3.8°C 53% 6.0 mph WSW9.7 kmh WSW 29.0 mph46.7 kmh 29.76 in1007.8 mb 0.00 in0.0 mm 0.00 in0.0 mm 0.00 in0.0 mm
03:37 PM 41.6°F5.3°C 24.9°F-3.9°C 52% 7.0 mph SSW11.3 kmh SSW 28.0 mph45.1 kmh 29.75 in1007.5 mb 0.00 in0.0 mm 0.00 in0.0 mm 0.00 in0.0 mm
03:42 PM 41.5°F5.3°C 25.3°F-3.7°C 53% 11.0 mph S17.7 kmh S 28.0 mph45.1 kmh 29.75 in1007.5 mb 0.00 in0.0 mm 0.00 in0.0 mm 0.00 in0.0 mm
03:47 PM 41.4°F5.2°C 24.7°F-4.1°C 52% 8.0 mph SW12.9 kmh SW 27.0 mph43.5 kmh 29.75 in1007.5 mb 0.00 in0.0 mm 0.00 in0.0 mm 0.00 in0.0 mm
03:52 PM 41.3°F5.2°C 25.1°F-3.8°C 53% 13.0 mph S20.9 kmh S 27.0 mph43.5 kmh 29.75 in1007.5 mb 0.00 in0.0 mm 0.00 in0.0 mm 0.00 in0.0 mm
03:57 PM 41.2°F5.1°C 25.0°F-3.9°C 53% 7.0 mph SW11.3 kmh SW 27.0 mph43.5 kmh 29.75 in1007.5 mb 0.00 in0.0 mm 0.00 in0.0 mm 0.00 in0.0 mm
04:02 PM 41.2°F5.1°C 25.9°F-3.4°C 55% 16.0 mph S25.7 kmh S 27.0 mph43.5 kmh 29.76 in1007.8 mb 0.00 in0.0 mm 0.00 in0.0 mm 0.00 in0.0 mm
04:07 PM 41.3°F5.2°C 26.0°F-3.3°C 55% 7.0 mph SW11.3 kmh SW 19.0 mph30.6 kmh 29.76 in1007.8 mb 0.00 in0.0 mm 0.00 in0.0 mm 0.00 in0.0 mm
04:12 PM 41.3°F5.2°C 26.0°F-3.3°C 55% 4.0 mph SW6.4 kmh SW 19.0 mph30.6 kmh 29.77 in1008.1 mb 0.00 in0.0 mm 0.00 in0.0 mm 0.00 in0.0 mm
04:17 PM 41.4°F5.2°C 26.6°F-3.0°C 56% 5.0 mph SW8.0 kmh SW 12.0 mph19.3 kmh 29.77 in1008.1 mb 0.00 in0.0 mm 0.00 in0.0 mm 0.00 in0.0 mm
04:22 PM 41.4°F5.2°C 26.6°F-3.0°C 56% 4.0 mph SSW6.4 kmh SSW 12.0 mph19.3 kmh 29.77 in1008.1 mb 0.00 in0.0 mm 0.00 in0.0 mm 0.00 in0.0 mm
04:27 PM 41.3°F5.2°C 26.5°F-3.1°C 56% 5.0 mph WSW8.0 kmh WSW 10.0 mph16.1 kmh 29.77 in1008.1 mb 0.00 in0.0 mm 0.00 in0.0 mm 0.00 in0.0 mm
04:32 PM 41.3°F5.2°C 26.9°F-2.8°C 57% 4.0 mph SW6.4 kmh SW 10.0 mph16.1 kmh 29.77 in1008.1 mb 0.00 in0.0 mm 0.00 in0.0 mm 0.00 in0.0 mm
04:37 PM 41.2°F5.1°C 26.8°F-2.9°C 57% 5.0 mph SW8.0 kmh SW 9.0 mph14.5 kmh 29.77 in1008.1 mb 0.00 in0.0 mm 0.00 in0.0 mm 0.00 in0.0 mm
04:42 PM 41.1°F5.1°C 26.7°F-2.9°C 57% 5.0 mph WSW8.0 kmh WSW 9.0 mph14.5 kmh 29.77 in1008.1 mb 0.00 in0.0 mm 0.00 in0.0 mm 0.00 in0.0 mm
04:47 PM 41.1°F5.1°C 26.7°F-2.9°C 57% 3.0 mph WSW4.8 kmh WSW 9.0 mph14.5 kmh 29.78 in1008.5 mb 0.00 in0.0 mm 0.00 in0.0 mm 0.00 in0.0 mm
04:52 PM 41.0°F5.0°C 27.1°F-2.7°C 58% 4.0 mph WSW6.4 kmh WSW 10.0 mph16.1 kmh 29.78 in1008.5 mb 0.00 in0.0 mm 0.00 in0.0 mm 0.00 in0.0 mm
04:57 PM 41.0°F5.0°C 27.1°F-2.7°C 58% 3.0 mph WSW4.8 kmh WSW 10.0 mph16.1 kmh 29.78 in1008.5 mb 0.00 in0.0 mm 0.00 in0.0 mm 0.00 in0.0 mm
05:02 PM 41.0°F5.0°C 27.1°F-2.7°C 58% 3.0 mph WSW4.8 kmh WSW 10.0 mph16.1 kmh 29.79 in1008.8 mb 0.00 in0.0 mm 0.00 in0.0 mm 0.00 in0.0 mm
05:07 PM 41.0°F5.0°C 27.1°F-2.7°C 58% 3.0 mph SW4.8 kmh SW 10.0 mph16.1 kmh 29.79 in1008.8 mb 0.00 in0.0 mm 0.00 in0.0 mm 0.00 in0.0 mm
05:12 PM 41.0°F5.0°C 27.1°F-2.7°C 58% 4.0 mph SW6.4 kmh SW 8.0 mph12.9 kmh 29.79 in1008.8 mb 0.00 in0.0 mm 0.00 in0.0 mm 0.00 in0.0 mm
05:17 PM 41.0°F5.0°C 27.1°F-2.7°C 58% 5.0 mph SSW8.0 kmh SSW 8.0 mph12.9 kmh 29.79 in1008.8 mb 0.00 in0.0 mm 0.00 in0.0 mm 0.00 in0.0 mm
05:22 PM 41.0°F5.0°C 27.1°F-2.7°C 58% 3.0 mph SW4.8 kmh SW 10.0 mph16.1 kmh 29.79 in1008.8 mb 0.00 in0.0 mm 0.00 in0.0 mm 0.00 in0.0 mm
05:27 PM 41.0°F5.0°C 27.1°F-2.7°C 58% 8.0 mph S12.9 kmh S 10.0 mph16.1 kmh 29.79 in1008.8 mb 0.00 in0.0 mm 0.00 in0.0 mm 0.00 in0.0 mm
05:32 PM 41.0°F5.0°C 27.1°F-2.7°C 58% 3.0 mph SW4.8 kmh SW 11.0 mph17.7 kmh 29.79 in1008.8 mb 0.00 in0.0 mm 0.00 in0.0 mm 0.00 in0.0 mm
05:37 PM 41.0°F5.0°C 27.1°F-2.7°C 58% 7.0 mph SW11.3 kmh SW 11.0 mph17.7 kmh 29.79 in1008.8 mb 0.00 in0.0 mm 0.00 in0.0 mm 0.00 in0.0 mm
05:42 PM 41.0°F5.0°C 27.5°F-2.5°C 59% 3.0 mph SSW4.8 kmh SSW 11.0 mph17.7 kmh 29.79 in1008.8 mb 0.00 in0.0 mm 0.00 in0.0 mm 0.00 in0.0 mm
05:47 PM 41.0°F5.0°C 27.1°F-2.7°C 58% 3.0 mph SW4.8 kmh SW 12.0 mph19.3 kmh 29.79 in1008.8 mb 0.00 in0.0 mm 0.00 in0.0 mm 0.00 in0.0 mm
05:52 PM 41.0°F5.0°C 27.1°F-2.7°C 58% 2.0 mph SW3.2 kmh SW 12.0 mph19.3 kmh 29.80 in1009.1 mb 0.00 in0.0 mm 0.00 in0.0 mm 0.00 in0.0 mm
05:57 PM 41.0°F5.0°C 27.5°F-2.5°C 59% 3.0 mph SW4.8 kmh SW 12.0 mph19.3 kmh 29.80 in1009.1 mb 0.00 in0.0 mm 0.00 in0.0 mm 0.00 in0.0 mm
06:07 PM 40.8°F4.9°C 27.3°F-2.6°C 59% 5.0 mph SSW8.0 kmh SSW 7.0 mph11.3 kmh 29.81 in1009.5 mb 0.00 in0.0 mm 0.00 in0.0 mm 0.00 in0.0 mm
06:12 PM 40.7°F4.8°C 27.2°F-2.7°C 59% 2.0 mph SW3.2 kmh SW 7.0 mph11.3 kmh 29.81 in1009.5 mb 0.00 in0.0 mm 0.00 in0.0 mm 0.00 in0.0 mm
06:17 PM 40.7°F4.8°C 27.7°F-2.4°C 60% 3.0 mph SW4.8 kmh SW 7.0 mph11.3 kmh 29.81 in1009.5 mb 0.00 in0.0 mm 0.00 in0.0 mm 0.00 in0.0 mm
06:22 PM 40.6°F4.8°C 27.6°F-2.4°C 60% 4.0 mph SW6.4 kmh SW 8.0 mph12.9 kmh 29.81 in1009.5 mb 0.00 in0.0 mm 0.00 in0.0 mm 0.00 in0.0 mm
06:27 PM 40.6°F4.8°C 27.6°F-2.4°C 60% 3.0 mph SW4.8 kmh SW 8.0 mph12.9 kmh 29.80 in1009.1 mb 0.00 in0.0 mm 0.00 in0.0 mm 0.00 in0.0 mm
06:32 PM 40.5°F4.7°C 27.5°F-2.5°C 60% 3.0 mph SSW4.8 kmh SSW 9.0 mph14.5 kmh 29.80 in1009.1 mb 0.00 in0.0 mm 0.00 in0.0 mm 0.00 in0.0 mm
06:37 PM 40.6°F4.8°C 27.6°F-2.4°C 60% 4.0 mph SSW6.4 kmh SSW 11.0 mph17.7 kmh 29.80 in1009.1 mb 0.00 in0.0 mm 0.00 in0.0 mm 0.00 in0.0 mm
06:42 PM 40.8°F4.9°C 27.7°F-2.4°C 60% 9.0 mph SW14.5 kmh SW 13.0 mph20.9 kmh 29.80 in1009.1 mb 0.00 in0.0 mm 0.00 in0.0 mm 0.00 in0.0 mm
06:47 PM 40.9°F4.9°C 27.8°F-2.3°C 60% 6.0 mph SW9.7 kmh SW 13.0 mph20.9 kmh 29.80 in1009.1 mb 0.00 in0.0 mm 0.00 in0.0 mm 0.00 in0.0 mm
06:52 PM 40.9°F4.9°C 27.8°F-2.3°C 60% 6.0 mph SSW9.7 kmh SSW 13.0 mph20.9 kmh 29.80 in1009.1 mb 0.00 in0.0 mm 0.00 in0.0 mm 0.00 in0.0 mm
06:57 PM 41.0°F5.0°C 27.9°F-2.3°C 60% 6.0 mph SW9.7 kmh SW 14.0 mph22.5 kmh 29.80 in1009.1 mb 0.00 in0.0 mm 0.00 in0.0 mm 0.00 in0.0 mm
07:02 PM 41.0°F5.0°C 27.9°F-2.3°C 60% 11.0 mph SW17.7 kmh SW 14.0 mph22.5 kmh 29.79 in1008.8 mb 0.00 in0.0 mm 0.00 in0.0 mm 0.00 in0.0 mm
07:07 PM 40.9°F4.9°C 27.8°F-2.3°C 60% 3.0 mph SSW4.8 kmh SSW 14.0 mph22.5 kmh 29.80 in1009.1 mb 0.00 in0.0 mm 0.00 in0.0 mm 0.00 in0.0 mm
07:12 PM 40.8°F4.9°C 27.7°F-2.4°C 60% 3.0 mph SW4.8 kmh SW 14.0 mph22.5 kmh 29.80 in1009.1 mb 0.00 in0.0 mm 0.00 in0.0 mm 0.00 in0.0 mm
07:17 PM 40.6°F4.8°C 27.6°F-2.4°C 60% 4.0 mph SW6.4 kmh SW 8.0 mph12.9 kmh 29.80 in1009.1 mb 0.00 in0.0 mm 0.00 in0.0 mm 0.00 in0.0 mm
07:22 PM 40.5°F4.7°C 27.9°F-2.3°C 61% 3.0 mph SW4.8 kmh SW 8.0 mph12.9 kmh 29.81 in1009.5 mb 0.00 in0.0 mm 0.00 in0.0 mm 0.00 in0.0 mm
07:27 PM 40.3°F4.6°C 27.7°F-2.4°C 61% 5.0 mph SW8.0 kmh SW 7.0 mph11.3 kmh 29.81 in1009.5 mb 0.00 in0.0 mm 0.00 in0.0 mm 0.00 in0.0 mm
07:32 PM 40.2°F4.6°C 27.6°F-2.4°C 61% 2.0 mph SW3.2 kmh SW 7.0 mph11.3 kmh 29.81 in1009.5 mb 0.00 in0.0 mm 0.00 in0.0 mm 0.00 in0.0 mm
07:37 PM 40.1°F4.5°C 27.9°F-2.3°C 62% 2.0 mph SW3.2 kmh SW 6.0 mph9.7 kmh 29.81 in1009.5 mb 0.00 in0.0 mm 0.00 in0.0 mm 0.00 in0.0 mm
07:42 PM 40.0°F4.4°C 27.8°F-2.3°C 62% 3.0 mph SW4.8 kmh SW 6.0 mph9.7 kmh 29.81 in1009.5 mb 0.00 in0.0 mm 0.00 in0.0 mm 0.00 in0.0 mm
07:47 PM 40.0°F4.4°C 27.8°F-2.3°C 62% 3.0 mph WSW4.8 kmh WSW 6.0 mph9.7 kmh 29.82 in1009.8 mb 0.00 in0.0 mm 0.00 in0.0 mm 0.00 in0.0 mm
07:52 PM 39.9°F4.4°C 27.7°F-2.4°C 62% 1.0 mph WSW1.6 kmh WSW 6.0 mph9.7 kmh 29.82 in1009.8 mb 0.00 in0.0 mm 0.00 in0.0 mm 0.00 in0.0 mm
07:57 PM 39.9°F4.4°C 27.7°F-2.4°C 62% 2.0 mph WSW3.2 kmh WSW 5.0 mph8.0 kmh 29.83 in1010.2 mb 0.00 in0.0 mm 0.00 in0.0 mm 0.00 in0.0 mm
08:02 PM 39.8°F4.3°C 27.6°F-2.4°C 62% 2.0 mph WSW3.2 kmh WSW 5.0 mph8.0 kmh 29.83 in1010.2 mb 0.00 in0.0 mm 0.00 in0.0 mm 0.00 in0.0 mm
08:07 PM 39.7°F4.3°C 27.9°F-2.3°C 63% 4.0 mph SW6.4 kmh SW 5.0 mph8.0 kmh 29.83 in1010.2 mb 0.00 in0.0 mm 0.00 in0.0 mm 0.00 in0.0 mm
08:12 PM 39.7°F4.3°C 27.9°F-2.3°C 63% 7.0 mph S11.3 kmh S 9.0 mph14.5 kmh 29.83 in1010.2 mb 0.00 in0.0 mm 0.00 in0.0 mm 0.00 in0.0 mm
08:17 PM 39.7°F4.3°C 27.9°F-2.3°C 63% 4.0 mph SSW6.4 kmh SSW 9.0 mph14.5 kmh 29.83 in1010.2 mb 0.00 in0.0 mm 0.00 in0.0 mm 0.00 in0.0 mm
08:22 PM 39.7°F4.3°C 27.9°F-2.3°C 63% 2.0 mph SW3.2 kmh SW 9.0 mph14.5 kmh 29.83 in1010.2 mb 0.00 in0.0 mm 0.00 in0.0 mm 0.00 in0.0 mm
08:27 PM 39.7°F4.3°C 27.9°F-2.3°C 63% 3.0 mph SW4.8 kmh SW 9.0 mph14.5 kmh 29.83 in1010.2 mb 0.00 in0.0 mm 0.00 in0.0 mm 0.00 in0.0 mm
08:32 PM 39.6°F4.2°C 27.8°F-2.3°C 63% 4.0 mph SSW6.4 kmh SSW 6.0 mph9.7 kmh 29.83 in1010.2 mb 0.00 in0.0 mm 0.00 in0.0 mm 0.00 in0.0 mm
08:37 PM 39.5°F4.2°C 27.7°F-2.4°C 63% 1.0 mph SW1.6 kmh SW 7.0 mph11.3 kmh 29.83 in1010.2 mb 0.00 in0.0 mm 0.00 in0.0 mm 0.00 in0.0 mm
08:42 PM 39.5°F4.2°C 27.7°F-2.4°C 63% 2.0 mph SW3.2 kmh SW 8.0 mph12.9 kmh 29.83 in1010.2 mb 0.00 in0.0 mm 0.00 in0.0 mm 0.00 in0.0 mm
08:47 PM 39.5°F4.2°C 28.1°F-2.2°C 64% 2.0 mph SSW3.2 kmh SSW 8.0 mph12.9 kmh 29.83 in1010.2 mb 0.00 in0.0 mm 0.00 in0.0 mm 0.00 in0.0 mm
08:52 PM 39.4°F4.1°C 28.0°F-2.2°C 64% 1.0 mph SW1.6 kmh SW 8.0 mph12.9 kmh 29.83 in1010.2 mb 0.00 in0.0 mm 0.00 in0.0 mm 0.00 in0.0 mm
08:57 PM 39.4°F4.1°C 28.0°F-2.2°C 64% 2.0 mph SSW3.2 kmh SSW 8.0 mph12.9 kmh 29.82 in1009.8 mb 0.00 in0.0 mm 0.00 in0.0 mm 0.00 in0.0 mm
09:02 PM 39.4°F4.1°C 28.0°F-2.2°C 64% 2.0 mph SSW3.2 kmh SSW 6.0 mph9.7 kmh 29.82 in1009.8 mb 0.00 in0.0 mm 0.00 in0.0 mm 0.00 in0.0 mm
09:07 PM 39.3°F4.1°C 28.0°F-2.2°C 64% 5.0 mph S8.0 kmh S 7.0 mph11.3 kmh 29.82 in1009.8 mb 0.00 in0.0 mm 0.00 in0.0 mm 0.00 in0.0 mm
09:12 PM 39.3°F4.1°C 28.0°F-2.2°C 64% 2.0 mph SSW3.2 kmh SSW 8.0 mph12.9 kmh 29.82 in1009.8 mb 0.00 in0.0 mm 0.00 in0.0 mm 0.00 in0.0 mm
09:17 PM 39.2°F4.0°C 27.9°F-2.3°C 64% 3.0 mph SW4.8 kmh SW 8.0 mph12.9 kmh 29.82 in1009.8 mb 0.00 in0.0 mm 0.00 in0.0 mm 0.00 in0.0 mm
09:22 PM 39.2°F4.0°C 27.9°F-2.3°C 64% 8.0 mph S12.9 kmh S 8.0 mph12.9 kmh 29.82 in1009.8 mb 0.00 in0.0 mm 0.00 in0.0 mm 0.00 in0.0 mm
09:27 PM 39.3°F4.1°C 28.0°F-2.2°C 64% 4.0 mph S6.4 kmh S 10.0 mph16.1 kmh 29.82 in1009.8 mb 0.00 in0.0 mm 0.00 in0.0 mm 0.00 in0.0 mm
09:32 PM 39.4°F4.1°C 28.0°F-2.2°C 64% 6.0 mph SSW9.7 kmh SSW 10.0 mph16.1 kmh 29.82 in1009.8 mb 0.00 in0.0 mm 0.00 in0.0 mm 0.00 in0.0 mm
09:37 PM 39.5°F4.2°C 28.1°F-2.2°C 64% 7.0 mph S11.3 kmh S 10.0 mph16.1 kmh 29.82 in1009.8 mb 0.00 in0.0 mm 0.00 in0.0 mm 0.00 in0.0 mm
09:42 PM 39.6°F4.2°C 28.2°F-2.1°C 64% 8.0 mph S12.9 kmh S 10.0 mph16.1 kmh 29.82 in1009.8 mb 0.00 in0.0 mm 0.00 in0.0 mm 0.00 in0.0 mm
09:47 PM 39.6°F4.2°C 28.2°F-2.1°C 64% 3.0 mph SW4.8 kmh SW 10.0 mph16.1 kmh 29.82 in1009.8 mb 0.00 in0.0 mm 0.00 in0.0 mm 0.00 in0.0 mm
09:52 PM 39.6°F4.2°C 28.2°F-2.1°C 64% 5.0 mph SW8.0 kmh SW 10.0 mph16.1 kmh 29.82 in1009.8 mb 0.00 in0.0 mm 0.00 in0.0 mm 0.00 in0.0 mm
09:57 PM 39.5°F4.2°C 28.1°F-2.2°C 64% 3.0 mph SW4.8 kmh SW 8.0 mph12.9 kmh 29.82 in1009.8 mb 0.00 in0.0 mm 0.00 in0.0 mm 0.00 in0.0 mm
10:02 PM 39.4°F4.1°C 28.0°F-2.2°C 64% 7.0 mph SSW11.3 kmh SSW 8.0 mph12.9 kmh 29.82 in1009.8 mb 0.00 in0.0 mm 0.00 in0.0 mm 0.00 in0.0 mm
10:07 PM 39.5°F4.2°C 28.1°F-2.2°C 64% 3.0 mph SSW4.8 kmh SSW 9.0 mph14.5 kmh 29.82 in1009.8 mb 0.00 in0.0 mm 0.00 in0.0 mm 0.00 in0.0 mm
10:12 PM 39.5°F4.2°C 28.5°F-1.9°C 65% 4.0 mph SW6.4 kmh SW 9.0 mph14.5 kmh 29.82 in1009.8 mb 0.00 in0.0 mm 0.00 in0.0 mm 0.00 in0.0 mm
10:17 PM 39.4°F4.1°C 28.4°F-2.0°C 65% 2.0 mph SW3.2 kmh SW 9.0 mph14.5 kmh 29.82 in1009.8 mb 0.00 in0.0 mm 0.00 in0.0 mm 0.00 in0.0 mm
10:22 PM 39.3°F4.1°C 28.3°F-2.1°C 65% 3.0 mph SSW4.8 kmh SSW 9.0 mph14.5 kmh 29.82 in1009.8 mb 0.00 in0.0 mm 0.00 in0.0 mm 0.00 in0.0 mm
10:27 PM 39.3°F4.1°C 28.3°F-2.1°C 65% 3.0 mph SW4.8 kmh SW 8.0 mph12.9 kmh 29.83 in1010.2 mb 0.00 in0.0 mm 0.00 in0.0 mm 0.00 in0.0 mm
10:32 PM 39.3°F4.1°C 28.7°F-1.8°C 66% 3.0 mph SW4.8 kmh SW 8.0 mph12.9 kmh 29.83 in1010.2 mb 0.00 in0.0 mm 0.00 in0.0 mm 0.00 in0.0 mm
10:37 PM 39.2°F4.0°C 28.6°F-1.9°C 66% 2.0 mph SW3.2 kmh SW 7.0 mph11.3 kmh 29.83 in1010.2 mb 0.00 in0.0 mm 0.00 in0.0 mm 0.00 in0.0 mm
10:42 PM 39.3°F4.1°C 28.7°F-1.8°C 66% 4.0 mph SW6.4 kmh SW 7.0 mph11.3 kmh 29.82 in1009.8 mb 0.00 in0.0 mm 0.00 in0.0 mm 0.00 in0.0 mm
10:47 PM 39.4°F4.1°C 28.8°F-1.8°C 66% 3.0 mph WSW4.8 kmh WSW 7.0 mph11.3 kmh 29.83 in1010.2 mb 0.00 in0.0 mm 0.00 in0.0 mm 0.00 in0.0 mm
10:52 PM 39.4°F4.1°C 28.8°F-1.8°C 66% 5.0 mph WSW8.0 kmh WSW 7.0 mph11.3 kmh 29.83 in1010.2 mb 0.00 in0.0 mm 0.00 in0.0 mm 0.00 in0.0 mm
10:57 PM 39.5°F4.2°C 28.9°F-1.7°C 66% 7.0 mph SSW11.3 kmh SSW 7.0 mph11.3 kmh 29.83 in1010.2 mb 0.00 in0.0 mm 0.00 in0.0 mm 0.00 in0.0 mm
11:02 PM 39.5°F4.2°C 28.9°F-1.7°C 66% 5.0 mph WSW8.0 kmh WSW 9.0 mph14.5 kmh 29.83 in1010.2 mb 0.00 in0.0 mm 0.00 in0.0 mm 0.00 in0.0 mm
11:07 PM 39.5°F4.2°C 28.9°F-1.7°C 66% 3.0 mph SSW4.8 kmh SSW 9.0 mph14.5 kmh 29.82 in1009.8 mb 0.00 in0.0 mm 0.00 in0.0 mm 0.00 in0.0 mm
11:12 PM 39.5°F4.2°C 28.9°F-1.7°C 66% 2.0 mph SW3.2 kmh SW 9.0 mph14.5 kmh 29.82 in1009.8 mb 0.00 in0.0 mm 0.00 in0.0 mm 0.00 in0.0 mm
11:17 PM 39.5°F4.2°C 28.9°F-1.7°C 66% 3.0 mph SW4.8 kmh SW 9.0 mph14.5 kmh 29.82 in1009.8 mb 0.00 in0.0 mm 0.00 in0.0 mm 0.00 in0.0 mm
11:22 PM 39.4°F4.1°C 28.8°F-1.8°C 66% 2.0 mph SSW3.2 kmh SSW 6.0 mph9.7 kmh 29.82 in1009.8 mb 0.00 in0.0 mm 0.00 in0.0 mm 0.00 in0.0 mm
11:27 PM 39.4°F4.1°C 28.8°F-1.8°C 66% 2.0 mph WSW3.2 kmh WSW 6.0 mph9.7 kmh 29.82 in1009.8 mb 0.00 in0.0 mm 0.00 in0.0 mm 0.00 in0.0 mm
11:32 PM 39.4°F4.1°C 28.8°F-1.8°C 66% 3.0 mph SW4.8 kmh SW 5.0 mph8.0 kmh 29.82 in1009.8 mb 0.00 in0.0 mm 0.00 in0.0 mm 0.00 in0.0 mm
11:37 PM 39.3°F4.1°C 28.7°F-1.8°C 66% 3.0 mph SW4.8 kmh SW 5.0 mph8.0 kmh 29.82 in1009.8 mb 0.00 in0.0 mm 0.00 in0.0 mm 0.00 in0.0 mm
11:42 PM 39.2°F4.0°C 28.6°F-1.9°C 66% 2.0 mph SW3.2 kmh SW 5.0 mph8.0 kmh 29.82 in1009.8 mb 0.00 in0.0 mm 0.00 in0.0 mm 0.00 in0.0 mm
11:47 PM 39.2°F4.0°C 28.6°F-1.9°C 66% 3.0 mph SW4.8 kmh SW 5.0 mph8.0 kmh 29.82 in1009.8 mb 0.00 in0.0 mm 0.00 in0.0 mm 0.00 in0.0 mm
11:52 PM 39.2°F4.0°C 28.6°F-1.9°C 66% Calm Calm -- 29.82 in1009.8 mb 0.00 in0.0 mm 0.00 in0.0 mm 0.00 in0.0 mm
11:57 PM 39.1°F3.9°C 28.9°F-1.7°C 67% Calm Calm 1.0 mph1.6 kmh 29.82 in1009.8 mb 0.00 in0.0 mm 0.00 in0.0 mm 0.00 in0.0 mm